Dreka, Texas
Current Conditions -  °F | °C
As of 12:35 PM on Thursday 27 Nov 2014 (Local Time) from KOCH Reporting Station
Clear Clear  
Wind Chill: 61°   Ceiling: Unl
Heat Index: 61°   Visibility: 10mi
Dew Point: 25°   Wind: 7mph
Humidity: 25%   Direction: 30°NNE
Pressure: 30.46"   Gusts: NA
Location:  31.7022°N, 93.9592°W
Report Text: KOCH 271835Z AUTO 03006KT 10SM CLR 16/M04 A3046 RMK AO1
Loading
Personal Weather Stations






























Interactive Weather Map New forecast layout! Learn more

10-Day Weather Forecast

Advertisements
Track Severe Weather on mobile